Pagrindinis puslapis
METAR-TAF:

METAR-TAF

Oro uostai :

Gothenburg-Landvetter, Švedija

platuma: 57-40N, ilguma: 012-18E, Aukštis: 169 m

Dabartinis oras

Ataskaita buvo paskelbta 33 minutes, ne 22:20 UTC
Vėjas 7 kt iš Pietų
Temperatūra 14°C
Drėgmė 82%
Slėgis 1019 hPa
Matomumas 10 km arba daugiau
nėra debesų žemiau 1500 m ir nėra kamuolinių lietaus debesų

METAR: ESGG 022220Z 18007KT CAVOK 14/11 Q1019

Laikas: 00:53 (22:53 UTC)

Prognozė

Ataskaita buvo paskelbta 2 valandos ir 23 minutes, ne 20:30 UTC
Prognozė galioja nuo 02 metu 21 UTC su 03 metu 21 UTC
Vėjas 9 kt iš Pietų
Matomumas 10 km arba daugiau
Išsisklaidę debesys ne aukštis 4500 ft
Laikinai
nuo 03 metu 04 UTC su 03 metu 18 UTC
Matomumas: 4000 m
Su prošvaistėmis ne aukštis 4000 ft, Liūtiniai kamuoliniai debesys.
lietus

TAF: ESGG 022030Z 0221/0321 18009KT 9999 SCT045 TEMPO 0304/0318 4000 SHRA BKN040CB

Orai ataskaitas ir orų prognozės (METAR, TAF).

turimą stotys yra geltonos ir raudonos taškus žemėlapyje.

Perkelti pele per norėdami pamatyti stoties vardą.

Tada spustelėkite, norėdami matyti oro stebėjimo ir prognozės.

Norėdami pakeisti žemėlapį: spustelėkite ant žalios mygtukų su juodo kryžiaus žemyn,; žalią mygtuką su brūkšneliu, jei norite nutolinti; arba žalių rodyklių gretimoms žemėlapius.


METAR-TAF: